Ashton, Nebraska
Current Conditions -  °F | °C
As of 3:53 AM on Thursday 18 Dec 2014 (Local Time) from KODX Reporting Station
Overcast Overcast  
Wind Chill: 16°   Ceiling: 2500
Heat Index: 23°   Visibility: 10mi
Dew Point: 20°   Wind: 6mph
Humidity: 88%   Direction: 150°SSE
Pressure: 30.13"   Gusts: NA
Location:  41.25°N, 98.79°W
Report Text: KODX 180953Z AUTO 15005KT 10SM OVC025 M05/M07 A3013 RMK AO2 SLP237 T10501067
Loading
Personal Weather Stations






























Interactive Weather Map New forecast layout! Learn more

10-Day Weather Forecast

Advertisements
Track Severe Weather on mobile